sensor_id;sensor_type;location;lat;lon;timestamp;P1;durP1;ratioP1;P2;durP2;ratioP2
13683;SDS011;6914;53.552;9.908;2024-03-08T00:02:18;34.07;;;18.50;;
13683;SDS011;6914;53.552;9.908;2024-03-08T00:04:45;28.40;;;16.90;;
13683;SDS011;6914;53.552;9.908;2024-03-08T00:07:12;28.77;;;18.07;;
13683;SDS011;6914;53.552;9.908;2024-03-08T00:09:39;31.27;;;16.80;;
13683;SDS011;6914;53.552;9.908;2024-03-08T00:12:07;30.57;;;17.83;;
13683;SDS011;6914;53.552;9.908;2024-03-08T00:14:35;30.90;;;16.53;;
13683;SDS011;6914;53.552;9.908;2024-03-08T00:17:03;31.17;;;17.20;;
13683;SDS011;6914;53.552;9.908;2024-03-08T00:19:30;30.00;;;17.73;;
13683;SDS011;6914;53.552;9.908;2024-03-08T00:21:58;32.70;;;18.40;;
13683;SDS011;6914;53.552;9.908;2024-03-08T00:24:25;31.27;;;18.67;;
13683;SDS011;6914;53.552;9.908;2024-03-08T00:26:53;33.87;;;17.97;;
13683;SDS011;6914;53.552;9.908;2024-03-08T00:29:21;33.73;;;17.33;;
13683;SDS011;6914;53.552;9.908;2024-03-08T00:31:49;37.40;;;18.07;;
13683;SDS011;6914;53.552;9.908;2024-03-08T00:34:16;27.60;;;17.60;;
13683;SDS011;6914;53.552;9.908;2024-03-08T00:36:43;30.93;;;18.47;;
13683;SDS011;6914;53.552;9.908;2024-03-08T00:39:11;29.53;;;17.40;;
13683;SDS011;6914;53.552;9.908;2024-03-08T00:41:38;30.10;;;17.20;;
13683;SDS011;6914;53.552;9.908;2024-03-08T00:44:05;33.40;;;19.43;;
13683;SDS011;6914;53.552;9.908;2024-03-08T00:46:32;37.33;;;18.93;;
13683;SDS011;6914;53.552;9.908;2024-03-08T00:49:01;31.17;;;18.53;;
13683;SDS011;6914;53.552;9.908;2024-03-08T00:51:28;28.40;;;17.40;;
13683;SDS011;6914;53.552;9.908;2024-03-08T00:53:56;33.93;;;19.20;;
13683;SDS011;6914;53.552;9.908;2024-03-08T00:56:23;33.60;;;17.73;;
13683;SDS011;6914;53.552;9.908;2024-03-08T00:58:50;29.87;;;18.90;;
13683;SDS011;6914;53.552;9.908;2024-03-08T01:01:18;34.43;;;18.10;;
13683;SDS011;6914;53.552;9.908;2024-03-08T01:03:46;49.03;;;18.80;;
13683;SDS011;6914;53.552;9.908;2024-03-08T01:06:15;32.67;;;18.33;;
13683;SDS011;6914;53.552;9.908;2024-03-08T01:08:42;31.70;;;18.03;;
13683;SDS011;6914;53.552;9.908;2024-03-08T01:11:09;28.10;;;17.50;;
13683;SDS011;6914;53.552;9.908;2024-03-08T01:13:36;39.27;;;20.13;;
13683;SDS011;6914;53.552;9.908;2024-03-08T01:16:03;27.67;;;18.70;;
13683;SDS011;6914;53.552;9.908;2024-03-08T01:18:30;32.30;;;18.83;;
13683;SDS011;6914;53.552;9.908;2024-03-08T01:20:58;29.93;;;18.70;;
13683;SDS011;6914;53.552;9.908;2024-03-08T01:23:26;35.80;;;18.77;;
13683;SDS011;6914;53.552;9.908;2024-03-08T01:25:54;33.13;;;19.20;;
13683;SDS011;6914;53.552;9.908;2024-03-08T01:28:22;30.80;;;17.30;;
13683;SDS011;6914;53.552;9.908;2024-03-08T01:30:50;34.33;;;17.73;;
13683;SDS011;6914;53.552;9.908;2024-03-08T01:33:20;30.17;;;17.10;;
13683;SDS011;6914;53.552;9.908;2024-03-08T01:35:47;29.07;;;17.00;;
13683;SDS011;6914;53.552;9.908;2024-03-08T01:38:15;32.00;;;17.67;;
13683;SDS011;6914;53.552;9.908;2024-03-08T01:40:43;38.13;;;19.60;;
13683;SDS011;6914;53.552;9.908;2024-03-08T01:43:17;28.80;;;16.47;;
13683;SDS011;6914;53.552;9.908;2024-03-08T01:45:44;32.00;;;18.27;;
13683;SDS011;6914;53.552;9.908;2024-03-08T01:48:13;29.37;;;19.20;;
13683;SDS011;6914;53.552;9.908;2024-03-08T01:50:40;31.87;;;19.10;;
13683;SDS011;6914;53.552;9.908;2024-03-08T01:53:08;37.23;;;19.67;;
13683;SDS011;6914;53.552;9.908;2024-03-08T01:55:37;30.47;;;18.93;;
13683;SDS011;6914;53.552;9.908;2024-03-08T01:58:07;38.60;;;19.57;;
13683;SDS011;6914;53.552;9.908;2024-03-08T02:00:36;27.43;;;17.87;;
13683;SDS011;6914;53.552;9.908;2024-03-08T02:03:03;35.47;;;19.60;;
13683;SDS011;6914;53.552;9.908;2024-03-08T02:05:30;27.63;;;17.80;;
13683;SDS011;6914;53.552;9.908;2024-03-08T02:07:57;41.20;;;20.50;;
13683;SDS011;6914;53.552;9.908;2024-03-08T02:10:25;37.53;;;19.10;;
13683;SDS011;6914;53.552;9.908;2024-03-08T02:12:52;39.80;;;19.63;;
13683;SDS011;6914;53.552;9.908;2024-03-08T02:15:20;34.20;;;17.90;;
13683;SDS011;6914;53.552;9.908;2024-03-08T02:17:47;33.30;;;17.90;;
13683;SDS011;6914;53.552;9.908;2024-03-08T02:20:15;34.60;;;18.07;;
13683;SDS011;6914;53.552;9.908;2024-03-08T02:22:46;33.43;;;18.53;;
13683;SDS011;6914;53.552;9.908;2024-03-08T02:25:16;35.47;;;18.33;;
13683;SDS011;6914;53.552;9.908;2024-03-08T02:27:43;38.43;;;18.30;;
13683;SDS011;6914;53.552;9.908;2024-03-08T02:30:10;31.27;;;18.60;;
13683;SDS011;6914;53.552;9.908;2024-03-08T02:32:38;35.30;;;19.20;;
13683;SDS011;6914;53.552;9.908;2024-03-08T02:35:06;38.00;;;19.30;;
13683;SDS011;6914;53.552;9.908;2024-03-08T02:37:33;30.50;;;18.20;;
13683;SDS011;6914;53.552;9.908;2024-03-08T02:40:00;29.40;;;18.83;;
13683;SDS011;6914;53.552;9.908;2024-03-08T02:42:27;31.23;;;19.03;;
13683;SDS011;6914;53.552;9.908;2024-03-08T02:44:54;34.43;;;19.90;;
13683;SDS011;6914;53.552;9.908;2024-03-08T02:47:23;36.03;;;19.60;;
13683;SDS011;6914;53.552;9.908;2024-03-08T02:49:51;33.10;;;18.50;;
13683;SDS011;6914;53.552;9.908;2024-03-08T02:52:18;33.57;;;18.87;;
13683;SDS011;6914;53.552;9.908;2024-03-08T02:54:46;38.00;;;21.60;;
13683;SDS011;6914;53.552;9.908;2024-03-08T02:57:16;29.23;;;16.97;;
13683;SDS011;6914;53.552;9.908;2024-03-08T02:59:43;33.80;;;18.57;;
13683;SDS011;6914;53.552;9.908;2024-03-08T03:02:10;30.77;;;18.80;;
13683;SDS011;6914;53.552;9.908;2024-03-08T03:04:39;42.37;;;20.47;;
13683;SDS011;6914;53.552;9.908;2024-03-08T03:07:06;34.70;;;19.47;;
13683;SDS011;6914;53.552;9.908;2024-03-08T03:09:33;34.63;;;19.80;;
13683;SDS011;6914;53.552;9.908;2024-03-08T03:12:00;33.20;;;17.63;;
13683;SDS011;6914;53.552;9.908;2024-03-08T03:14:28;29.50;;;18.70;;
13683;SDS011;6914;53.552;9.908;2024-03-08T03:16:56;35.70;;;19.30;;
13683;SDS011;6914;53.552;9.908;2024-03-08T03:19:23;30.13;;;18.50;;
13683;SDS011;6914;53.552;9.908;2024-03-08T03:21:50;33.17;;;19.27;;
13683;SDS011;6914;53.552;9.908;2024-03-08T03:24:17;32.93;;;20.27;;
13683;SDS011;6914;53.552;9.908;2024-03-08T03:26:46;42.33;;;20.73;;
13683;SDS011;6914;53.552;9.908;2024-03-08T03:29:14;35.93;;;20.20;;
13683;SDS011;6914;53.552;9.908;2024-03-08T03:31:44;38.07;;;19.40;;
13683;SDS011;6914;53.552;9.908;2024-03-08T03:34:11;33.13;;;20.80;;
13683;SDS011;6914;53.552;9.908;2024-03-08T03:36:39;31.93;;;19.00;;
13683;SDS011;6914;53.552;9.908;2024-03-08T03:39:07;33.80;;;18.83;;
13683;SDS011;6914;53.552;9.908;2024-03-08T03:41:38;32.47;;;18.60;;
13683;SDS011;6914;53.552;9.908;2024-03-08T03:44:05;33.23;;;19.77;;
13683;SDS011;6914;53.552;9.908;2024-03-08T03:46:32;42.57;;;19.50;;
13683;SDS011;6914;53.552;9.908;2024-03-08T03:49:02;37.50;;;19.33;;
13683;SDS011;6914;53.552;9.908;2024-03-08T03:51:29;50.57;;;20.17;;
13683;SDS011;6914;53.552;9.908;2024-03-08T03:53:56;41.47;;;21.03;;
13683;SDS011;6914;53.552;9.908;2024-03-08T03:56:25;33.83;;;19.50;;
13683;SDS011;6914;53.552;9.908;2024-03-08T03:58:52;35.33;;;18.57;;
13683;SDS011;6914;53.552;9.908;2024-03-08T04:01:19;34.10;;;20.43;;
13683;SDS011;6914;53.552;9.908;2024-03-08T04:03:46;41.20;;;20.57;;
13683;SDS011;6914;53.552;9.908;2024-03-08T04:06:15;34.70;;;18.13;;
13683;SDS011;6914;53.552;9.908;2024-03-08T04:08:42;37.87;;;20.13;;
13683;SDS011;6914;53.552;9.908;2024-03-08T04:11:09;41.90;;;19.70;;
13683;SDS011;6914;53.552;9.908;2024-03-08T04:13:36;41.10;;;19.87;;
13683;SDS011;6914;53.552;9.908;2024-03-08T04:16:04;43.03;;;20.07;;
13683;SDS011;6914;53.552;9.908;2024-03-08T04:18:33;43.60;;;21.70;;
13683;SDS011;6914;53.552;9.908;2024-03-08T04:21:03;33.77;;;19.60;;
13683;SDS011;6914;53.552;9.908;2024-03-08T04:23:34;37.60;;;20.70;;
13683;SDS011;6914;53.552;9.908;2024-03-08T04:26:01;38.13;;;20.43;;
13683;SDS011;6914;53.552;9.908;2024-03-08T04:28:31;43.67;;;21.23;;
13683;SDS011;6914;53.552;9.908;2024-03-08T04:30:58;35.87;;;19.17;;
13683;SDS011;6914;53.552;9.908;2024-03-08T04:33:26;39.03;;;21.37;;
13683;SDS011;6914;53.552;9.908;2024-03-08T04:35:53;43.10;;;21.37;;
13683;SDS011;6914;53.552;9.908;2024-03-08T04:38:21;35.63;;;20.73;;
13683;SDS011;6914;53.552;9.908;2024-03-08T04:40:50;45.03;;;19.60;;
13683;SDS011;6914;53.552;9.908;2024-03-08T04:43:17;40.30;;;20.80;;
13683;SDS011;6914;53.552;9.908;2024-03-08T04:45:45;39.27;;;20.77;;
13683;SDS011;6914;53.552;9.908;2024-03-08T04:48:13;36.47;;;20.67;;
13683;SDS011;6914;53.552;9.908;2024-03-08T04:50:40;34.80;;;20.23;;
13683;SDS011;6914;53.552;9.908;2024-03-08T04:53:07;40.77;;;20.83;;
13683;SDS011;6914;53.552;9.908;2024-03-08T04:55:35;37.57;;;20.20;;
13683;SDS011;6914;53.552;9.908;2024-03-08T04:58:04;41.13;;;20.37;;
13683;SDS011;6914;53.552;9.908;2024-03-08T05:00:32;35.77;;;20.03;;
13683;SDS011;6914;53.552;9.908;2024-03-08T05:02:59;39.87;;;20.10;;
13683;SDS011;6914;53.552;9.908;2024-03-08T05:05:26;41.37;;;22.17;;
13683;SDS011;6914;53.552;9.908;2024-03-08T05:07:54;38.50;;;21.30;;
13683;SDS011;6914;53.552;9.908;2024-03-08T05:10:21;38.13;;;20.73;;
13683;SDS011;6914;53.552;9.908;2024-03-08T05:12:48;38.83;;;20.50;;
13683;SDS011;6914;53.552;9.908;2024-03-08T05:15:17;39.50;;;20.73;;
13683;SDS011;6914;53.552;9.908;2024-03-08T05:17:45;47.63;;;23.10;;
13683;SDS011;6914;53.552;9.908;2024-03-08T05:20:12;43.23;;;23.00;;
13683;SDS011;6914;53.552;9.908;2024-03-08T05:22:39;41.70;;;23.10;;
13683;SDS011;6914;53.552;9.908;2024-03-08T05:25:07;44.23;;;20.37;;
13683;SDS011;6914;53.552;9.908;2024-03-08T05:27:35;41.93;;;20.97;;
13683;SDS011;6914;53.552;9.908;2024-03-08T05:30:02;47.93;;;23.13;;
13683;SDS011;6914;53.552;9.908;2024-03-08T05:32:31;37.63;;;19.43;;
13683;SDS011;6914;53.552;9.908;2024-03-08T05:34:58;44.97;;;22.63;;
13683;SDS011;6914;53.552;9.908;2024-03-08T05:37:25;43.90;;;22.27;;
13683;SDS011;6914;53.552;9.908;2024-03-08T05:39:52;45.77;;;21.63;;
13683;SDS011;6914;53.552;9.908;2024-03-08T05:42:20;49.70;;;22.30;;
13683;SDS011;6914;53.552;9.908;2024-03-08T05:44:47;52.50;;;22.87;;
13683;SDS011;6914;53.552;9.908;2024-03-08T05:47:14;41.93;;;21.90;;
13683;SDS011;6914;53.552;9.908;2024-03-08T05:49:44;37.93;;;21.03;;
13683;SDS011;6914;53.552;9.908;2024-03-08T05:52:11;39.30;;;20.30;;
13683;SDS011;6914;53.552;9.908;2024-03-08T05:54:39;39.40;;;20.40;;
13683;SDS011;6914;53.552;9.908;2024-03-08T05:57:07;45.03;;;22.50;;
13683;SDS011;6914;53.552;9.908;2024-03-08T05:59:34;41.60;;;22.70;;
13683;SDS011;6914;53.552;9.908;2024-03-08T06:02:02;51.63;;;22.17;;
13683;SDS011;6914;53.552;9.908;2024-03-08T06:04:29;40.40;;;22.37;;
13683;SDS011;6914;53.552;9.908;2024-03-08T06:06:58;44.83;;;23.87;;
13683;SDS011;6914;53.552;9.908;2024-03-08T06:09:25;44.10;;;22.87;;
13683;SDS011;6914;53.552;9.908;2024-03-08T06:11:52;39.97;;;22.23;;
13683;SDS011;6914;53.552;9.908;2024-03-08T06:14:20;41.43;;;22.07;;
13683;SDS011;6914;53.552;9.908;2024-03-08T06:16:48;38.83;;;21.67;;
13683;SDS011;6914;53.552;9.908;2024-03-08T06:19:16;38.20;;;21.87;;
13683;SDS011;6914;53.552;9.908;2024-03-08T06:21:43;43.77;;;23.60;;
13683;SDS011;6914;53.552;9.908;2024-03-08T06:24:12;42.33;;;22.83;;
13683;SDS011;6914;53.552;9.908;2024-03-08T06:26:40;44.97;;;21.57;;
13683;SDS011;6914;53.552;9.908;2024-03-08T06:29:07;41.87;;;22.10;;
13683;SDS011;6914;53.552;9.908;2024-03-08T06:31:35;47.23;;;24.57;;
13683;SDS011;6914;53.552;9.908;2024-03-08T06:34:03;47.37;;;23.17;;
13683;SDS011;6914;53.552;9.908;2024-03-08T06:36:32;42.87;;;22.33;;
13683;SDS011;6914;53.552;9.908;2024-03-08T06:39:00;53.47;;;23.30;;
13683;SDS011;6914;53.552;9.908;2024-03-08T06:41:35;45.90;;;22.80;;
13683;SDS011;6914;53.552;9.908;2024-03-08T06:44:02;45.17;;;22.17;;
13683;SDS011;6914;53.552;9.908;2024-03-08T06:46:30;42.30;;;22.70;;
13683;SDS011;6914;53.552;9.908;2024-03-08T06:48:57;37.07;;;21.47;;
13683;SDS011;6914;53.552;9.908;2024-03-08T06:51:24;40.17;;;22.97;;
13683;SDS011;6914;53.552;9.908;2024-03-08T06:53:52;45.20;;;24.23;;
13683;SDS011;6914;53.552;9.908;2024-03-08T06:56:19;71.07;;;25.17;;
13683;SDS011;6914;53.552;9.908;2024-03-08T06:58:49;45.77;;;23.07;;
13683;SDS011;6914;53.552;9.908;2024-03-08T07:01:16;44.03;;;22.27;;
13683;SDS011;6914;53.552;9.908;2024-03-08T07:03:43;38.30;;;23.37;;
13683;SDS011;6914;53.552;9.908;2024-03-08T07:06:10;46.73;;;23.23;;
13683;SDS011;6914;53.552;9.908;2024-03-08T07:08:39;52.20;;;24.20;;
13683;SDS011;6914;53.552;9.908;2024-03-08T07:11:06;46.53;;;24.63;;
13683;SDS011;6914;53.552;9.908;2024-03-08T07:13:33;43.10;;;24.60;;
13683;SDS011;6914;53.552;9.908;2024-03-08T07:16:02;44.33;;;24.53;;
13683;SDS011;6914;53.552;9.908;2024-03-08T07:18:29;47.10;;;25.40;;
13683;SDS011;6914;53.552;9.908;2024-03-08T07:20:56;42.30;;;23.17;;
13683;SDS011;6914;53.552;9.908;2024-03-08T07:23:23;53.37;;;23.80;;
13683;SDS011;6914;53.552;9.908;2024-03-08T07:26:04;45.23;;;25.43;;
13683;SDS011;6914;53.552;9.908;2024-03-08T07:28:31;44.93;;;23.97;;
13683;SDS011;6914;53.552;9.908;2024-03-08T07:30:58;38.27;;;23.80;;
13683;SDS011;6914;53.552;9.908;2024-03-08T07:33:43;49.83;;;25.20;;
13683;SDS011;6914;53.552;9.908;2024-03-08T07:36:10;42.43;;;23.83;;
13683;SDS011;6914;53.552;9.908;2024-03-08T07:38:39;45.70;;;25.00;;
13683;SDS011;6914;53.552;9.908;2024-03-08T07:41:06;44.00;;;24.63;;
13683;SDS011;6914;53.552;9.908;2024-03-08T07:43:34;41.33;;;25.00;;
13683;SDS011;6914;53.552;9.908;2024-03-08T07:46:01;42.43;;;22.37;;
13683;SDS011;6914;53.552;9.908;2024-03-08T07:48:29;47.80;;;25.30;;
13683;SDS011;6914;53.552;9.908;2024-03-08T07:50:57;44.13;;;24.20;;
13683;SDS011;6914;53.552;9.908;2024-03-08T07:53:25;42.20;;;24.23;;
13683;SDS011;6914;53.552;9.908;2024-03-08T07:55:52;50.70;;;23.77;;
13683;SDS011;6914;53.552;9.908;2024-03-08T07:58:19;39.40;;;23.50;;
13683;SDS011;6914;53.552;9.908;2024-03-08T08:00:46;53.10;;;25.20;;
13683;SDS011;6914;53.552;9.908;2024-03-08T08:03:14;39.47;;;23.17;;
13683;SDS011;6914;53.552;9.908;2024-03-08T08:05:45;43.30;;;25.87;;
13683;SDS011;6914;53.552;9.908;2024-03-08T08:08:15;46.47;;;25.37;;
13683;SDS011;6914;53.552;9.908;2024-03-08T08:10:42;39.60;;;24.67;;
13683;SDS011;6914;53.552;9.908;2024-03-08T08:13:09;37.47;;;22.87;;
13683;SDS011;6914;53.552;9.908;2024-03-08T08:15:37;49.13;;;24.80;;
13683;SDS011;6914;53.552;9.908;2024-03-08T08:18:05;40.83;;;24.50;;
13683;SDS011;6914;53.552;9.908;2024-03-08T08:20:34;46.73;;;23.77;;
13683;SDS011;6914;53.552;9.908;2024-03-08T08:23:02;44.03;;;24.50;;
13683;SDS011;6914;53.552;9.908;2024-03-08T08:25:31;45.20;;;25.10;;
13683;SDS011;6914;53.552;9.908;2024-03-08T08:27:59;41.60;;;22.10;;
13683;SDS011;6914;53.552;9.908;2024-03-08T08:30:29;41.77;;;24.60;;
13683;SDS011;6914;53.552;9.908;2024-03-08T08:32:57;48.40;;;24.50;;
13683;SDS011;6914;53.552;9.908;2024-03-08T08:35:25;35.70;;;23.47;;
13683;SDS011;6914;53.552;9.908;2024-03-08T08:37:53;39.77;;;25.13;;
13683;SDS011;6914;53.552;9.908;2024-03-08T08:40:20;40.83;;;24.17;;
13683;SDS011;6914;53.552;9.908;2024-03-08T08:42:49;42.07;;;24.87;;
13683;SDS011;6914;53.552;9.908;2024-03-08T08:45:16;42.73;;;23.47;;
13683;SDS011;6914;53.552;9.908;2024-03-08T08:47:43;43.93;;;24.77;;
13683;SDS011;6914;53.552;9.908;2024-03-08T08:50:12;47.40;;;24.87;;
13683;SDS011;6914;53.552;9.908;2024-03-08T08:52:41;45.60;;;25.97;;
13683;SDS011;6914;53.552;9.908;2024-03-08T08:55:09;41.00;;;24.73;;
13683;SDS011;6914;53.552;9.908;2024-03-08T08:57:39;44.90;;;26.23;;
13683;SDS011;6914;53.552;9.908;2024-03-08T09:00:08;42.13;;;25.33;;
13683;SDS011;6914;53.552;9.908;2024-03-08T09:02:39;43.27;;;26.90;;
13683;SDS011;6914;53.552;9.908;2024-03-08T09:05:07;45.30;;;25.70;;
13683;SDS011;6914;53.552;9.908;2024-03-08T09:07:34;39.80;;;24.13;;
13683;SDS011;6914;53.552;9.908;2024-03-08T09:10:02;46.23;;;24.77;;
13683;SDS011;6914;53.552;9.908;2024-03-08T09:12:29;39.63;;;23.70;;
13683;SDS011;6914;53.552;9.908;2024-03-08T09:14:57;39.33;;;24.90;;
13683;SDS011;6914;53.552;9.908;2024-03-08T09:17:26;38.73;;;23.80;;
13683;SDS011;6914;53.552;9.908;2024-03-08T09:19:53;42.83;;;24.00;;
13683;SDS011;6914;53.552;9.908;2024-03-08T09:22:22;44.53;;;26.03;;
13683;SDS011;6914;53.552;9.908;2024-03-08T09:24:50;40.33;;;24.10;;
13683;SDS011;6914;53.552;9.908;2024-03-08T09:27:17;37.37;;;24.73;;
13683;SDS011;6914;53.552;9.908;2024-03-08T09:29:44;37.40;;;24.93;;
13683;SDS011;6914;53.552;9.908;2024-03-08T09:32:11;46.63;;;25.13;;
13683;SDS011;6914;53.552;9.908;2024-03-08T09:34:40;42.13;;;26.77;;
13683;SDS011;6914;53.552;9.908;2024-03-08T09:37:07;42.50;;;25.23;;
13683;SDS011;6914;53.552;9.908;2024-03-08T09:39:34;40.23;;;23.77;;
13683;SDS011;6914;53.552;9.908;2024-03-08T09:42:02;36.73;;;22.60;;
13683;SDS011;6914;53.552;9.908;2024-03-08T09:44:30;33.33;;;22.90;;
13683;SDS011;6914;53.552;9.908;2024-03-08T09:46:58;36.87;;;23.37;;
13683;SDS011;6914;53.552;9.908;2024-03-08T09:49:27;39.60;;;25.47;;
13683;SDS011;6914;53.552;9.908;2024-03-08T09:51:56;36.63;;;23.90;;
13683;SDS011;6914;53.552;9.908;2024-03-08T09:54:24;31.77;;;23.37;;
13683;SDS011;6914;53.552;9.908;2024-03-08T09:56:52;33.13;;;22.63;;
13683;SDS011;6914;53.552;9.908;2024-03-08T09:59:19;34.00;;;23.47;;
13683;SDS011;6914;53.552;9.908;2024-03-08T10:02:08;37.60;;;24.77;;
13683;SDS011;6914;53.552;9.908;2024-03-08T10:04:39;31.77;;;22.13;;
13683;SDS011;6914;53.552;9.908;2024-03-08T10:07:09;29.50;;;22.90;;
13683;SDS011;6914;53.552;9.908;2024-03-08T10:09:37;43.33;;;24.20;;
13683;SDS011;6914;53.552;9.908;2024-03-08T10:12:04;28.53;;;22.70;;
13683;SDS011;6914;53.552;9.908;2024-03-08T10:14:32;28.43;;;21.53;;
13683;SDS011;6914;53.552;9.908;2024-03-08T10:16:59;36.10;;;23.57;;
13683;SDS011;6914;53.552;9.908;2024-03-08T10:19:26;39.17;;;24.00;;
13683;SDS011;6914;53.552;9.908;2024-03-08T10:21:55;48.23;;;28.00;;
13683;SDS011;6914;53.552;9.908;2024-03-08T10:24:25;37.93;;;23.60;;
13683;SDS011;6914;53.552;9.908;2024-03-08T10:26:52;32.73;;;24.23;;
13683;SDS011;6914;53.552;9.908;2024-03-08T10:29:20;31.63;;;21.90;;
13683;SDS011;6914;53.552;9.908;2024-03-08T10:31:47;34.80;;;23.77;;
13683;SDS011;6914;53.552;9.908;2024-03-08T10:34:16;35.13;;;22.77;;
13683;SDS011;6914;53.552;9.908;2024-03-08T10:36:44;32.73;;;24.40;;
13683;SDS011;6914;53.552;9.908;2024-03-08T10:39:14;34.70;;;24.27;;
13683;SDS011;6914;53.552;9.908;2024-03-08T10:41:46;28.80;;;20.53;;
13683;SDS011;6914;53.552;9.908;2024-03-08T10:44:17;30.13;;;21.03;;
13683;SDS011;6914;53.552;9.908;2024-03-08T10:46:58;32.13;;;22.23;;
13683;SDS011;6914;53.552;9.908;2024-03-08T10:49:30;29.20;;;22.70;;
13683;SDS011;6914;53.552;9.908;2024-03-08T10:51:59;29.83;;;21.20;;
13683;SDS011;6914;53.552;9.908;2024-03-08T10:54:28;30.43;;;21.40;;
13683;SDS011;6914;53.552;9.908;2024-03-08T10:56:59;29.47;;;21.17;;
13683;SDS011;6914;53.552;9.908;2024-03-08T10:59:28;26.27;;;19.17;;
13683;SDS011;6914;53.552;9.908;2024-03-08T11:01:59;31.47;;;20.70;;
13683;SDS011;6914;53.552;9.908;2024-03-08T11:04:26;35.53;;;21.60;;
13683;SDS011;6914;53.552;9.908;2024-03-08T11:06:57;40.70;;;21.03;;
13683;SDS011;6914;53.552;9.908;2024-03-08T11:09:28;30.33;;;21.40;;
13683;SDS011;6914;53.552;9.908;2024-03-08T11:14:46;27.43;;;18.83;;
13683;SDS011;6914;53.552;9.908;2024-03-08T11:17:15;30.93;;;20.00;;
13683;SDS011;6914;53.552;9.908;2024-03-08T11:19:45;32.47;;;20.20;;
13683;SDS011;6914;53.552;9.908;2024-03-08T11:22:20;24.67;;;19.43;;
13683;SDS011;6914;53.552;9.908;2024-03-08T11:25:08;27.73;;;20.30;;
13683;SDS011;6914;53.552;9.908;2024-03-08T11:27:40;31.07;;;19.63;;
13683;SDS011;6914;53.552;9.908;2024-03-08T11:33:36;25.07;;;19.70;;
13683;SDS011;6914;53.552;9.908;2024-03-08T11:36:09;27.40;;;19.93;;
13683;SDS011;6914;53.552;9.908;2024-03-08T11:38:41;31.80;;;21.00;;
13683;SDS011;6914;53.552;9.908;2024-03-08T11:41:09;28.83;;;19.70;;
13683;SDS011;6914;53.552;9.908;2024-03-08T11:43:39;33.33;;;20.17;;
13683;SDS011;6914;53.552;9.908;2024-03-08T11:46:09;30.87;;;20.63;;
13683;SDS011;6914;53.552;9.908;2024-03-08T11:48:39;30.43;;;20.70;;
13683;SDS011;6914;53.552;9.908;2024-03-08T11:51:07;31.47;;;21.80;;
13683;SDS011;6914;53.552;9.908;2024-03-08T11:53:36;34.53;;;19.90;;
13683;SDS011;6914;53.552;9.908;2024-03-08T11:56:07;34.30;;;20.67;;
13683;SDS011;6914;53.552;9.908;2024-03-08T11:58:34;33.30;;;20.33;;
13683;SDS011;6914;53.552;9.908;2024-03-08T12:01:03;31.70;;;19.97;;
13683;SDS011;6914;53.552;9.908;2024-03-08T12:03:31;28.33;;;20.00;;
13683;SDS011;6914;53.552;9.908;2024-03-08T12:06:00;28.87;;;18.87;;
13683;SDS011;6914;53.552;9.908;2024-03-08T12:11:32;23.33;;;17.80;;
13683;SDS011;6914;53.552;9.908;2024-03-08T12:13:59;27.53;;;19.20;;
13683;SDS011;6914;53.552;9.908;2024-03-08T12:16:26;27.73;;;17.10;;
13683;SDS011;6914;53.552;9.908;2024-03-08T12:18:53;28.60;;;18.47;;
13683;SDS011;6914;53.552;9.908;2024-03-08T12:21:22;26.63;;;19.20;;
13683;SDS011;6914;53.552;9.908;2024-03-08T12:24:01;30.17;;;20.23;;
13683;SDS011;6914;53.552;9.908;2024-03-08T12:26:29;33.50;;;20.50;;
13683;SDS011;6914;53.552;9.908;2024-03-08T12:31:42;26.57;;;18.50;;
13683;SDS011;6914;53.552;9.908;2024-03-08T12:34:09;34.43;;;18.30;;
13683;SDS011;6914;53.552;9.908;2024-03-08T12:36:39;26.80;;;20.20;;
13683;SDS011;6914;53.552;9.908;2024-03-08T12:39:12;31.53;;;19.67;;
13683;SDS011;6914;53.552;9.908;2024-03-08T12:41:41;29.83;;;20.10;;
13683;SDS011;6914;53.552;9.908;2024-03-08T12:44:08;30.03;;;20.53;;
13683;SDS011;6914;53.552;9.908;2024-03-08T12:46:36;27.90;;;20.03;;
13683;SDS011;6914;53.552;9.908;2024-03-08T12:49:05;30.37;;;19.33;;
13683;SDS011;6914;53.552;9.908;2024-03-08T12:51:33;30.80;;;19.37;;
13683;SDS011;6914;53.552;9.908;2024-03-08T12:54:03;31.47;;;20.33;;
13683;SDS011;6914;53.552;9.908;2024-03-08T12:56:36;27.43;;;18.33;;
13683;SDS011;6914;53.552;9.908;2024-03-08T12:59:05;28.13;;;18.17;;
13683;SDS011;6914;53.552;9.908;2024-03-08T13:01:35;24.23;;;17.57;;
13683;SDS011;6914;53.552;9.908;2024-03-08T13:04:05;34.60;;;19.30;;
13683;SDS011;6914;53.552;9.908;2024-03-08T13:06:36;28.30;;;17.97;;
13683;SDS011;6914;53.552;9.908;2024-03-08T13:09:05;26.63;;;19.23;;
13683;SDS011;6914;53.552;9.908;2024-03-08T13:11:32;31.73;;;19.40;;
13683;SDS011;6914;53.552;9.908;2024-03-08T13:14:02;27.27;;;18.47;;
13683;SDS011;6914;53.552;9.908;2024-03-08T13:16:30;32.33;;;19.73;;
13683;SDS011;6914;53.552;9.908;2024-03-08T13:18:59;28.67;;;18.67;;
13683;SDS011;6914;53.552;9.908;2024-03-08T13:21:27;36.40;;;18.17;;
13683;SDS011;6914;53.552;9.908;2024-03-08T13:23:55;28.33;;;17.70;;
13683;SDS011;6914;53.552;9.908;2024-03-08T13:26:25;26.30;;;16.53;;
13683;SDS011;6914;53.552;9.908;2024-03-08T13:28:57;25.40;;;18.33;;
13683;SDS011;6914;53.552;9.908;2024-03-08T13:31:25;24.10;;;17.10;;
13683;SDS011;6914;53.552;9.908;2024-03-08T13:33:53;30.20;;;18.17;;
13683;SDS011;6914;53.552;9.908;2024-03-08T13:36:23;23.47;;;17.80;;
13683;SDS011;6914;53.552;9.908;2024-03-08T13:38:54;26.60;;;17.37;;
13683;SDS011;6914;53.552;9.908;2024-03-08T13:41:25;33.33;;;18.50;;
13683;SDS011;6914;53.552;9.908;2024-03-08T13:43:53;29.90;;;17.60;;
13683;SDS011;6914;53.552;9.908;2024-03-08T13:46:20;32.37;;;18.33;;
13683;SDS011;6914;53.552;9.908;2024-03-08T13:48:49;25.60;;;17.87;;
13683;SDS011;6914;53.552;9.908;2024-03-08T13:51:16;34.03;;;16.97;;
13683;SDS011;6914;53.552;9.908;2024-03-08T13:53:45;27.77;;;17.30;;
13683;SDS011;6914;53.552;9.908;2024-03-08T13:56:12;25.13;;;17.07;;
13683;SDS011;6914;53.552;9.908;2024-03-08T13:58:41;24.50;;;17.43;;
13683;SDS011;6914;53.552;9.908;2024-03-08T14:01:09;30.10;;;17.03;;
13683;SDS011;6914;53.552;9.908;2024-03-08T14:03:36;27.57;;;18.40;;
13683;SDS011;6914;53.552;9.908;2024-03-08T14:06:06;20.03;;;15.10;;
13683;SDS011;6914;53.552;9.908;2024-03-08T14:08:34;24.77;;;16.80;;
13683;SDS011;6914;53.552;9.908;2024-03-08T14:11:03;32.17;;;16.10;;
13683;SDS011;6914;53.552;9.908;2024-03-08T14:13:36;22.80;;;16.53;;
13683;SDS011;6914;53.552;9.908;2024-03-08T14:16:06;25.30;;;16.67;;
13683;SDS011;6914;53.552;9.908;2024-03-08T14:18:35;26.93;;;17.13;;
13683;SDS011;6914;53.552;9.908;2024-03-08T14:21:03;26.73;;;16.27;;
13683;SDS011;6914;53.552;9.908;2024-03-08T14:23:30;27.10;;;16.10;;
13683;SDS011;6914;53.552;9.908;2024-03-08T14:25:57;23.73;;;16.47;;
13683;SDS011;6914;53.552;9.908;2024-03-08T14:28:25;26.50;;;15.87;;
13683;SDS011;6914;53.552;9.908;2024-03-08T14:30:53;23.50;;;15.17;;
13683;SDS011;6914;53.552;9.908;2024-03-08T14:33:22;20.20;;;14.63;;
13683;SDS011;6914;53.552;9.908;2024-03-08T14:35:53;23.87;;;15.73;;
13683;SDS011;6914;53.552;9.908;2024-03-08T14:38:20;25.27;;;17.33;;
13683;SDS011;6914;53.552;9.908;2024-03-08T14:40:47;29.80;;;16.73;;
13683;SDS011;6914;53.552;9.908;2024-03-08T14:43:14;23.60;;;15.40;;
13683;SDS011;6914;53.552;9.908;2024-03-08T14:45:41;28.23;;;16.23;;
13683;SDS011;6914;53.552;9.908;2024-03-08T14:48:12;27.13;;;16.30;;
13683;SDS011;6914;53.552;9.908;2024-03-08T14:50:41;24.13;;;16.73;;
13683;SDS011;6914;53.552;9.908;2024-03-08T14:53:09;27.47;;;15.07;;